Contact Us:
Email: info@sawbill.com
Phone: (218)663-7150
Fax: (218)663-7980
Mail: 4620 Sawbill Trail
Box 2129
Tofte, MN 55615


Powered by
Movable Type 3.15
 
Sawbill Weather History Archives: November 2002
Current Sawbill Weather History | « October 2002 | December 2002 »


Date

High
Temperature

Low
Temperature

Barometric
Pressure

Relative
Humidity 7AM

9 AM
Temperature

Moisture

Snow

11/30/02 16 2 29.89 66% 13 .01" .75"
11/29/02 39 2 29.05 58% 2 0 Trace
11/28/02 35 27 29.32 79% 34 0  
11/27/02 30 -1 29.93 64% 22 0  
11/26/02 23 -5 29.36 60% -1 0  
11/25/02 28 -16 29.6 60% 0 0  
11/24/02 26 15 29.39 73% 16 0  
11/23/02 34 19 29.22 74% 19 .03" 1.5"
11/22/02 36 18 28.77 84% 30 0  
11/21/02 33 18 29.25 73% 18 0 Trace
11/20/02 34 29 29.09 78% 30 .08" 2.0"
11/19/02 36 29 29.08 80% 29 .04" 1.5"
11/18/02 38 27 28.91 83% 33 0  
11/17/02 32 23 28.99 73% 28 0  
11/16/02 29 15 29.22 74% 26 0  
11/15/02 26 1 29.41 71% 15 0  
11/14/02 30 -1 29.32 66% 4 0 Trace
11/13/02 24 14 29.10 73% 17 .01" 1"
11/12/02 34 12 29.11 71% 14 .02" 3"
11/11/02 33 20 29.09 72% 29 0 Trace
11/10/02 37 19 29.03 73% 20 0  
11/09/02 39 35 28.54 89% 37 0  
11/08/02 42 31 28.61 29% 35 0  
11/07/02 49 27 28.68 33% 36 0  
11/06/02 35 10 28.81 27% 27 0  
11/05/02 36 28 28.92 29% 32 0  
11/04/02 31 25 29.00 30% 28 0  
11/03/02 41 25 29.21 30% 25 0  
11/02/02 39 20 29.01 29% 26 0  
11/01/02 33 22 29.18 30% 27 0  
 


Home I Trip Planning I Rentals and Outfitting I Reservations I Campgrounds I Sawbill Store I Sawbill News I Contact

© 1997 - 2017, Sawbill Canoe Outfitters, Inc. I Privacy Policy